Time;durP1;ratioP1;P1;durP2;ratioP2;P2;SDS_P1;SDS_P2;PMS_P1;PMS_P2;Temp;Humidity;BMP_temperature;BMP_pressure;BME280_temperature;BME280_humidity;BME280_pressure;Samples;Min_cycle;Max_cycle;Signal;HPM_P1;HPM_P2
2022/07/07 00:00:56;;;;;;;5.72;2.05;;;25.50;86.90;;;;;;4990112;28;20096;-71
2022/07/07 00:03:22;;;;;;;2.63;1.85;;;25.60;86.80;;;;;;4993584;28;20109;-71
2022/07/07 00:05:47;;;;;;;2.03;1.80;;;25.60;86.70;;;;;;4992355;28;20042;-71
2022/07/07 00:08:13;;;;;;;3.08;1.80;;;25.70;87.00;;;;;;4992193;28;20433;-71
2022/07/07 00:10:39;;;;;;;5.38;2.05;;;25.60;87.00;;;;;;4995123;28;20041;-72
2022/07/07 00:13:05;;;;;;;5.97;2.10;;;25.60;87.20;;;;;;4992841;28;20080;-71
2022/07/07 00:15:31;;;;;;;5.57;2.25;;;25.60;87.20;;;;;;4991206;28;20033;-71
2022/07/07 00:17:57;;;;;;;2.67;1.92;;;25.60;86.80;;;;;;4993257;28;20038;-72
2022/07/07 00:20:22;;;;;;;2.55;1.90;;;25.60;87.30;;;;;;4992053;28;20054;-72
2022/07/07 00:22:48;;;;;;;2.22;2.00;;;25.60;87.30;;;;;;4992657;28;20032;-72
2022/07/07 00:25:14;;;;;;;2.80;2.13;;;25.60;87.30;;;;;;4992141;28;20682;-72
2022/07/07 00:27:40;;;;;;;4.50;2.40;;;25.50;87.40;;;;;;4992707;28;20451;-72
2022/07/07 00:30:06;;;;;;;4.82;2.28;;;25.60;87.60;;;;;;4992573;28;20046;-72
2022/07/07 00:32:32;;;;;;;2.65;1.88;;;25.60;87.40;;;;;;4992816;28;20026;-72
2022/07/07 00:34:58;;;;;;;2.15;1.95;;;25.50;88.00;;;;;;4991970;28;20375;-72
2022/07/07 00:37:23;;;;;;;3.70;1.88;;;25.50;88.10;;;;;;4992891;28;20022;-72
2022/07/07 00:39:49;;;;;;;6.07;2.55;;;25.50;88.30;;;;;;4991895;28;20042;-72
2022/07/07 00:42:16;;;;;;;8.60;2.42;;;25.50;88.60;;;;;;4993950;28;20389;-72
2022/07/07 00:44:42;;;;;;;3.22;1.90;;;25.40;88.80;;;;;;4992004;28;20049;-72
2022/07/07 00:47:09;;;;;;;2.45;1.92;;;25.40;89.00;;;;;;4987611;28;20026;-72
2022/07/07 00:49:38;;;;;;;4.53;2.00;;;25.40;89.30;;;;;;4991505;28;20030;-72
2022/07/07 00:52:08;;;;;;;2.75;2.08;;;25.40;89.20;;;;;;4992127;28;20461;-72
2022/07/07 00:54:34;;;;;;;4.43;2.30;;;25.50;89.30;;;;;;4990967;28;20124;-72
2022/07/07 00:57:01;;;;;;;3.17;2.28;;;25.50;89.40;;;;;;4990644;28;20029;-72
2022/07/07 00:59:26;;;;;;;4.57;2.28;;;25.50;89.70;;;;;;4992057;28;20022;-72
2022/07/07 01:01:53;;;;;;;2.28;2.08;;;25.50;89.40;;;;;;4994651;28;20054;-72
2022/07/07 01:04:19;;;;;;;7.78;2.25;;;25.50;89.80;;;;;;4991751;28;20117;-72
2022/07/07 01:06:45;;;;;;;4.63;2.20;;;25.60;89.70;;;;;;4991916;28;20168;-72
2022/07/07 01:09:10;;;;;;;3.88;2.38;;;25.50;89.90;;;;;;4990640;28;20023;-72
2022/07/07 01:11:46;;;;;;;3.88;2.42;;;25.50;90.00;;;;;;4994440;28;20018;-72
2022/07/07 01:14:12;;;;;;;3.47;2.20;;;25.50;90.00;;;;;;4977176;28;20373;-72
2022/07/07 01:16:38;;;;;;;3.25;2.20;;;25.60;89.80;;;;;;4990304;28;20034;-72
2022/07/07 01:19:04;;;;;;;3.25;2.13;;;25.60;89.50;;;;;;4991657;28;20034;-72
2022/07/07 01:21:33;;;;;;;3.88;2.58;;;25.60;90.20;;;;;;4991696;28;20485;-72
2022/07/07 01:23:59;;;;;;;4.95;2.28;;;25.60;89.60;;;;;;4991935;28;20026;-72
2022/07/07 01:26:26;;;;;;;4.43;2.10;;;25.60;89.40;;;;;;4985509;28;20034;-72
2022/07/07 01:28:52;;;;;;;3.13;2.15;;;25.60;89.30;;;;;;4990220;28;20030;-72
2022/07/07 01:31:18;;;;;;;6.05;2.53;;;25.60;89.10;;;;;;4993073;28;20023;-72
2022/07/07 01:33:44;;;;;;;2.40;2.20;;;25.50;89.10;;;;;;4991491;28;20033;-72
2022/07/07 01:36:12;;;;;;;6.25;2.33;;;25.50;89.40;;;;;;4988459;28;20029;-72
2022/07/07 01:38:38;;;;;;;2.03;1.88;;;25.50;89.40;;;;;;4991750;28;20038;-72
2022/07/07 01:41:04;;;;;;;4.30;2.50;;;25.40;89.10;;;;;;4994026;28;20058;-72
2022/07/07 01:43:30;;;;;;;4.20;2.17;;;25.40;89.20;;;;;;4991211;28;20031;-72
2022/07/07 01:45:55;;;;;;;4.03;2.38;;;25.40;89.20;;;;;;4989669;28;20680;-72
2022/07/07 01:48:22;;;;;;;4.75;1.85;;;25.40;89.10;;;;;;4991750;28;20023;-72
2022/07/07 01:50:48;;;;;;;3.95;2.20;;;25.30;89.20;;;;;;4990956;28;20030;-72
2022/07/07 01:53:14;;;;;;;3.22;2.10;;;25.30;88.90;;;;;;4991824;28;20026;-72
2022/07/07 01:55:39;;;;;;;10.13;2.00;;;25.20;88.80;;;;;;4989584;28;20397;-72
2022/07/07 01:58:06;;;;;;;2.13;1.98;;;25.20;88.80;;;;;;4991415;28;20477;-72
2022/07/07 02:00:31;;;;;;;2.22;1.80;;;25.10;88.70;;;;;;4992741;28;20031;-72
2022/07/07 02:02:57;;;;;;;2.22;2.03;;;25.10;88.40;;;;;;4992036;28;20125;-72
2022/07/07 02:05:23;;;;;;;3.08;1.90;;;25.20;88.50;;;;;;4990881;28;20477;-72
2022/07/07 02:07:48;;;;;;;2.45;1.90;;;25.20;88.50;;;;;;4991521;28;20085;-71
2022/07/07 02:11:12;;;;;;;2.22;1.95;;;25.20;88.60;;;;;;4989277;28;20628;-72
2022/07/07 02:13:00;;;;;;;2.15;1.92;;;25.20;88.40;;;;;;4990728;28;20513;-72
2022/07/07 02:15:26;;;;;;;2.88;1.75;;;25.30;88.50;;;;;;4990912;28;20031;-72
2022/07/07 02:17:51;;;;;;;2.72;1.88;;;25.30;88.20;;;;;;4990426;28;20457;-72
2022/07/07 02:20:17;;;;;;;4.05;2.10;;;25.30;87.80;;;;;;4990844;28;20481;-72
2022/07/07 02:22:43;;;;;;;3.40;1.77;;;25.30;87.60;;;;;;4991465;28;20035;-72
2022/07/07 02:25:09;;;;;;;6.80;2.10;;;25.30;87.60;;;;;;4989312;28;20522;-72
2022/07/07 02:27:34;;;;;;;4.47;1.70;;;25.30;87.60;;;;;;4989563;28;20026;-72
2022/07/07 02:30:00;;;;;;;2.55;1.90;;;25.30;87.90;;;;;;4990373;28;20119;-71
2022/07/07 02:32:26;;;;;;;7.75;2.28;;;25.30;88.00;;;;;;4994215;28;20018;-71
2022/07/07 02:34:51;;;;;;;3.58;2.10;;;25.30;88.20;;;;;;4989778;28;20029;-71
2022/07/07 02:37:17;;;;;;;4.00;1.95;;;25.30;87.90;;;;;;4991427;28;20037;-71
2022/07/07 02:39:43;;;;;;;7.95;2.00;;;25.20;87.60;;;;;;4990710;28;20023;-71
2022/07/07 02:42:08;;;;;;;3.65;2.03;;;25.20;87.60;;;;;;4993907;28;20365;-71
2022/07/07 02:44:34;;;;;;;5.47;2.00;;;25.20;87.50;;;;;;4990994;28;20042;-71
2022/07/07 02:46:59;;;;;;;3.90;1.80;;;25.20;87.40;;;;;;4991344;28;20508;-71
2022/07/07 02:49:25;;;;;;;2.40;1.75;;;25.20;87.40;;;;;;4994620;28;20109;-71
2022/07/07 02:51:51;;;;;;;3.22;2.40;;;25.20;87.60;;;;;;4993327;28;20034;-71
2022/07/07 02:54:17;;;;;;;4.03;1.83;;;25.30;87.60;;;;;;4994622;28;20529;-72
2022/07/07 02:56:43;;;;;;;2.03;1.52;;;25.30;87.60;;;;;;4992920;28;20034;-71
2022/07/07 02:59:09;;;;;;;5.80;1.95;;;25.20;87.40;;;;;;4994304;28;20102;-71
2022/07/07 03:01:34;;;;;;;3.97;2.20;;;25.30;87.50;;;;;;4995529;28;20092;-71
2022/07/07 03:04:00;;;;;;;2.47;1.83;;;25.30;87.60;;;;;;4994641;28;20026;-71
2022/07/07 03:06:26;;;;;;;2.47;1.75;;;25.30;87.70;;;;;;4994331;28;20504;-71
2022/07/07 03:08:51;;;;;;;8.25;1.80;;;25.20;88.00;;;;;;4994404;28;20113;-72
2022/07/07 03:11:17;;;;;;;3.13;2.08;;;25.10;89.50;;;;;;4995522;28;20053;-71
2022/07/07 03:13:43;;;;;;;8.35;1.98;;;25.00;92.70;;;;;;4994088;28;20034;-72
2022/07/07 03:16:09;;;;;;;13.52;2.90;;;24.80;95.00;;;;;;4992850;28;20503;-71
2022/07/07 03:18:35;;;;;;;3.97;2.42;;;24.50;96.90;;;;;;4994163;28;20045;-71
2022/07/07 03:21:00;;;;;;;6.22;2.40;;;24.20;97.80;;;;;;4993853;28;20093;-71
2022/07/07 03:23:26;;;;;;;2.20;2.00;;;23.90;98.10;;;;;;4994319;28;20544;-72
2022/07/07 03:25:52;;;;;;;4.32;1.98;;;23.60;99.90;;;;;;4993450;28;20113;-72
2022/07/07 03:28:17;;;;;;;3.03;2.42;;;23.40;99.90;;;;;;4994231;28;20026;-72
2022/07/07 03:30:43;;;;;;;3.25;2.20;;;23.30;99.90;;;;;;4996233;28;20029;-72
2022/07/07 03:33:09;;;;;;;5.88;2.85;;;23.10;99.90;;;;;;4992800;28;20026;-73
2022/07/07 03:35:34;;;;;;;6.50;2.60;;;23.00;99.90;;;;;;4993543;28;20042;-72
2022/07/07 03:38:00;;;;;;;4.35;2.65;;;23.00;99.90;;;;;;4992812;28;20106;-72
2022/07/07 03:40:26;;;;;;;5.75;2.58;;;22.80;99.90;;;;;;4994806;28;20069;-72
2022/07/07 03:42:51;;;;;;;6.80;2.50;;;22.70;99.90;;;;;;4995048;28;20029;-72
2022/07/07 03:45:17;;;;;;;4.32;2.50;;;22.70;99.90;;;;;;4991998;28;20157;-72
2022/07/07 03:47:43;;;;;;;4.88;2.42;;;22.60;99.90;;;;;;4993933;28;20057;-72
2022/07/07 03:50:09;;;;;;;13.15;3.00;;;22.50;99.90;;;;;;4993029;28;20030;-72
2022/07/07 03:52:34;;;;;;;3.85;2.55;;;22.40;99.90;;;;;;4992541;28;20370;-72
2022/07/07 03:55:00;;;;;;;2.90;2.55;;;22.30;99.90;;;;;;4992967;28;20081;-72
2022/07/07 03:57:26;;;;;;;3.40;2.35;;;22.20;99.90;;;;;;4991975;28;20104;-72
2022/07/07 03:59:52;;;;;;;4.03;2.25;;;22.10;99.90;;;;;;4985477;28;20034;-73
2022/07/07 04:02:17;;;;;;;3.92;2.75;;;22.00;99.90;;;;;;4995996;28;20050;-73
2022/07/07 04:04:43;;;;;;;3.78;2.45;;;22.00;99.90;;;;;;4992869;28;20026;-72
2022/07/07 04:07:09;;;;;;;4.85;2.55;;;22.00;99.90;;;;;;4993396;28;20397;-72
2022/07/07 04:09:34;;;;;;;3.47;2.40;;;22.00;99.90;;;;;;4993018;28;20026;-73
2022/07/07 04:12:00;;;;;;;3.63;2.30;;;22.00;99.90;;;;;;4995637;28;20061;-73
2022/07/07 04:14:26;;;;;;;4.65;2.40;;;22.10;99.90;;;;;;4993084;28;20382;-72
2022/07/07 04:16:51;;;;;;;2.92;2.20;;;22.10;99.90;;;;;;4991756;28;20653;-72
2022/07/07 04:19:17;;;;;;;7.32;2.33;;;22.10;99.90;;;;;;4993097;28;20417;-72
2022/07/07 04:21:43;;;;;;;8.77;2.58;;;22.10;99.90;;;;;;4991787;28;20030;-72
2022/07/07 04:24:08;;;;;;;5.78;2.33;;;22.00;99.90;;;;;;4992693;28;20030;-72
2022/07/07 04:26:34;;;;;;;3.22;2.30;;;21.90;99.90;;;;;;4991342;28;20038;-72
2022/07/07 04:29:00;;;;;;;3.03;2.30;;;21.90;99.90;;;;;;4992771;28;20026;-72
2022/07/07 04:31:26;;;;;;;5.53;2.30;;;21.90;99.90;;;;;;4994303;28;20050;-72
2022/07/07 04:33:51;;;;;;;4.55;2.53;;;21.90;99.90;;;;;;4992811;28;20046;-71
2022/07/07 04:36:17;;;;;;;6.35;2.47;;;22.00;99.90;;;;;;4992721;28;20519;-72
2022/07/07 04:38:43;;;;;;;5.00;2.40;;;22.00;99.90;;;;;;4992697;28;20370;-72
2022/07/07 04:41:08;;;;;;;3.72;2.55;;;22.00;99.90;;;;;;4995245;28;20236;-72
2022/07/07 04:43:34;;;;;;;4.50;2.80;;;22.00;99.90;;;;;;4991265;28;20096;-72
2022/07/07 04:46:00;;;;;;;2.58;2.38;;;22.00;99.90;;;;;;4991104;28;20042;-72
2022/07/07 04:48:25;;;;;;;5.65;2.67;;;21.90;99.90;;;;;;4992851;28;20022;-73
2022/07/07 04:50:51;;;;;;;3.35;2.50;;;21.90;99.90;;;;;;4990616;28;20034;-72
2022/07/07 04:53:17;;;;;;;3.67;2.25;;;21.90;99.90;;;;;;4992399;28;20022;-72
2022/07/07 04:55:42;;;;;;;4.80;2.53;;;21.90;99.90;;;;;;4990830;28;20036;-72
2022/07/07 04:58:08;;;;;;;3.35;2.28;;;21.90;99.90;;;;;;4984002;28;20022;-73
2022/07/07 05:00:34;;;;;;;7.50;2.38;;;21.90;99.90;;;;;;4994004;28;20062;-72
2022/07/07 05:02:59;;;;;;;2.75;2.45;;;21.90;99.90;;;;;;4991618;28;20478;-72
2022/07/07 05:05:25;;;;;;;4.32;2.45;;;21.90;99.90;;;;;;4991653;28;20037;-72
2022/07/07 05:07:51;;;;;;;2.65;2.45;;;22.00;99.90;;;;;;4992683;28;20022;-72
2022/07/07 05:10:16;;;;;;;3.33;2.25;;;22.00;99.90;;;;;;4991600;28;20033;-72
2022/07/07 05:12:42;;;;;;;3.63;2.70;;;22.10;99.90;;;;;;4994863;28;20113;-71
2022/07/07 05:15:08;;;;;;;5.18;2.45;;;22.10;99.90;;;;;;4991600;28;20022;-72
2022/07/07 05:17:34;;;;;;;6.13;2.72;;;22.00;99.90;;;;;;4992175;28;20497;-72
2022/07/07 05:19:59;;;;;;;4.90;2.75;;;21.90;99.90;;;;;;4991553;28;20035;-73
2022/07/07 05:22:25;;;;;;;8.48;2.90;;;21.90;99.90;;;;;;4992002;28;20025;-72
2022/07/07 05:24:50;;;;;;;5.55;2.95;;;21.90;99.90;;;;;;4990289;28;20382;-72
2022/07/07 05:27:16;;;;;;;3.15;2.60;;;21.80;99.90;;;;;;4991845;28;20026;-72
2022/07/07 05:29:42;;;;;;;4.45;3.00;;;21.80;99.90;;;;;;4991542;28;20026;-71
2022/07/07 05:32:08;;;;;;;3.47;2.80;;;21.80;99.90;;;;;;4994842;28;20022;-72
2022/07/07 05:34:33;;;;;;;6.68;2.85;;;21.80;99.90;;;;;;4991588;28;20088;-72
2022/07/07 05:36:59;;;;;;;4.22;2.60;;;21.80;99.90;;;;;;4991758;28;20038;-72
2022/07/07 05:39:25;;;;;;;3.20;2.80;;;21.80;99.90;;;;;;4991069;28;20045;-72
2022/07/07 05:41:50;;;;;;;5.25;2.83;;;21.80;99.90;;;;;;4990212;28;20025;-72
2022/07/07 05:44:16;;;;;;;9.90;3.00;;;21.90;99.90;;;;;;4990103;28;20112;-72
2022/07/07 05:46:42;;;;;;;5.25;3.05;;;22.00;99.90;;;;;;4990018;28;20038;-71
2022/07/07 05:49:08;;;;;;;4.10;2.60;;;22.00;99.90;;;;;;4990967;28;20021;-71
2022/07/07 05:51:33;;;;;;;6.97;3.25;;;22.00;99.90;;;;;;4991268;28;20026;-71
2022/07/07 05:53:59;;;;;;;6.57;2.38;;;22.00;99.90;;;;;;4991484;28;20028;-71
2022/07/07 05:56:25;;;;;;;4.38;2.45;;;22.10;99.90;;;;;;4991322;28;20030;-71
2022/07/07 05:58:50;;;;;;;7.10;2.97;;;22.00;99.90;;;;;;4990647;28;20030;-72
2022/07/07 06:01:17;;;;;;;4.68;2.95;;;22.10;99.90;;;;;;4991208;28;20441;-71
2022/07/07 06:03:42;;;;;;;3.70;2.75;;;22.10;99.90;;;;;;4987260;28;20050;-72
2022/07/07 06:06:08;;;;;;;3.47;2.60;;;22.10;99.90;;;;;;4987840;28;20038;-71
2022/07/07 06:08:34;;;;;;;3.63;2.30;;;22.20;99.90;;;;;;4988315;28;20105;-71
2022/07/07 06:10:59;;;;;;;2.60;2.38;;;22.20;99.90;;;;;;4991032;28;20034;-73
2022/07/07 06:13:25;;;;;;;4.10;2.63;;;22.30;99.90;;;;;;4987128;28;20037;-73
2022/07/07 06:15:51;;;;;;;4.68;2.53;;;22.30;99.90;;;;;;4988114;28;20061;-80
2022/07/07 06:18:17;;;;;;;3.78;2.40;;;22.40;99.90;;;;;;4989007;28;20088;-74
2022/07/07 06:20:42;;;;;;;6.57;2.80;;;22.40;99.90;;;;;;4987008;28;20481;-74
2022/07/07 06:23:09;;;;;;;6.93;2.70;;;22.40;99.90;;;;;;4983092;28;20809;-85
2022/07/07 06:25:35;;;;;;;5.10;2.80;;;22.30;99.90;;;;;;4992489;28;20034;-76
2022/07/07 06:28:01;;;;;;;6.30;2.60;;;22.30;99.90;;;;;;4993099;28;20145;-73
2022/07/07 06:30:27;;;;;;;14.27;2.70;;;22.30;99.90;;;;;;4993283;28;20452;-74
2022/07/07 06:32:53;;;;;;;5.32;2.30;;;22.40;99.90;;;;;;4992139;28;20429;-76
2022/07/07 06:35:22;;;;;;;8.25;2.22;;;22.40;99.90;;;;;;4990835;28;20045;-74
2022/07/07 06:37:48;;;;;;;4.35;2.53;;;22.50;99.90;;;;;;4990367;28;20516;-74
2022/07/07 06:40:14;;;;;;;5.35;2.42;;;22.70;99.90;;;;;;4990055;28;20037;-74
2022/07/07 06:42:40;;;;;;;3.53;2.30;;;22.90;99.90;;;;;;4991758;28;20027;-75
2022/07/07 06:45:06;;;;;;;2.92;2.30;;;23.00;99.90;;;;;;4989953;28;20053;-75
2022/07/07 06:47:32;;;;;;;3.88;2.70;;;23.10;99.90;;;;;;4989334;28;20092;-75
2022/07/07 06:49:58;;;;;;;3.50;2.28;;;23.20;99.90;;;;;;4988547;28;20521;-75
2022/07/07 06:52:24;;;;;;;3.30;2.45;;;23.20;99.90;;;;;;4989920;28;20034;-74
2022/07/07 06:54:49;;;;;;;4.55;2.30;;;23.30;99.90;;;;;;4988490;28;20056;-73
2022/07/07 06:57:15;;;;;;;2.70;2.33;;;23.30;99.90;;;;;;4991639;28;20117;-73
2022/07/07 06:59:41;;;;;;;6.00;2.25;;;23.30;99.90;;;;;;4990981;28;20243;-74
2022/07/07 07:02:07;;;;;;;4.72;2.28;;;23.40;99.90;;;;;;4992812;28;20066;-74
2022/07/07 07:04:33;;;;;;;3.08;2.30;;;23.50;99.90;;;;;;4990686;28;20030;-73
2022/07/07 07:06:59;;;;;;;2.53;2.00;;;23.60;99.90;;;;;;4986202;28;20037;-73
2022/07/07 07:09:24;;;;;;;5.20;1.98;;;23.80;99.90;;;;;;4991018;28;20374;-74
2022/07/07 07:11:50;;;;;;;3.65;2.30;;;23.90;99.90;;;;;;4993720;28;20030;-73
2022/07/07 07:14:16;;;;;;;5.28;1.88;;;24.00;99.90;;;;;;4990391;28;20030;-73
2022/07/07 07:16:42;;;;;;;6.05;4.40;;;24.10;99.90;;;;;;4990715;28;20125;-73
2022/07/07 07:19:08;;;;;;;6.22;4.30;;;24.30;99.90;;;;;;4989225;28;20029;-73
2022/07/07 07:21:33;;;;;;;2.60;2.17;;;24.50;99.90;;;;;;4990723;28;20034;-73
2022/07/07 07:23:59;;;;;;;6.85;2.20;;;24.60;99.90;;;;;;4989520;28;20105;-74
2022/07/07 07:26:25;;;;;;;3.17;2.05;;;24.70;99.90;;;;;;4990835;28;20030;-74
2022/07/07 07:28:51;;;;;;;3.25;2.20;;;24.80;99.90;;;;;;4989427;28;20638;-74
2022/07/07 07:31:17;;;;;;;5.07;2.25;;;24.70;99.90;;;;;;4991912;28;20030;-74
2022/07/07 07:33:43;;;;;;;2.25;1.92;;;24.70;99.90;;;;;;4990441;28;20018;-74
2022/07/07 07:36:09;;;;;;;4.47;3.15;;;24.70;99.90;;;;;;4988759;28;20026;-73
2022/07/07 07:38:37;;;;;;;3.15;2.38;;;24.60;99.90;;;;;;4989223;28;20491;-74
2022/07/07 07:41:03;;;;;;;4.60;1.80;;;24.60;99.90;;;;;;4990223;28;20027;-73
2022/07/07 07:43:29;;;;;;;6.93;2.03;;;24.50;99.90;;;;;;4989843;28;20517;-73
2022/07/07 07:45:55;;;;;;;5.32;2.30;;;24.50;99.90;;;;;;4989782;28;20058;-73
2022/07/07 07:48:20;;;;;;;3.00;1.83;;;24.40;99.90;;;;;;4990280;28;20034;-72
2022/07/07 07:50:46;;;;;;;2.42;2.08;;;24.60;99.90;;;;;;4989542;28;20034;-73
2022/07/07 07:53:12;;;;;;;2.30;2.10;;;24.70;99.90;;;;;;4990274;28;20030;-73
2022/07/07 07:55:39;;;;;;;3.45;2.00;;;24.80;99.90;;;;;;4989299;28;20041;-73
2022/07/07 07:58:05;;;;;;;2.97;1.90;;;24.90;99.90;;;;;;4989748;28;20113;-74
2022/07/07 08:00:31;;;;;;;4.45;2.20;;;25.00;99.90;;;;;;4991244;28;20034;-73
2022/07/07 08:02:57;;;;;;;2.17;1.83;;;25.10;99.90;;;;;;4990598;28;20035;-73
2022/07/07 08:05:22;;;;;;;3.70;1.98;;;25.20;99.90;;;;;;4989185;28;20034;-73
2022/07/07 08:07:48;;;;;;;3.25;2.10;;;25.30;99.90;;;;;;4990190;28;20031;-73
2022/07/07 08:10:15;;;;;;;2.92;1.98;;;25.30;99.90;;;;;;4988826;28;20084;-73
2022/07/07 08:12:42;;;;;;;6.97;1.80;;;25.40;99.90;;;;;;4986132;28;20125;-74
2022/07/07 08:15:09;;;;;;;2.13;1.70;;;25.50;99.90;;;;;;4989060;28;20030;-74
2022/07/07 08:17:34;;;;;;;2.30;2.05;;;25.60;99.90;;;;;;4988440;28;20388;-74
2022/07/07 08:20:00;;;;;;;6.25;2.10;;;25.70;99.90;;;;;;4987871;28;20030;-74
2022/07/07 08:22:26;;;;;;;3.13;1.90;;;25.80;99.90;;;;;;4989614;28;20134;-73
2022/07/07 08:24:53;;;;;;;4.25;2.08;;;25.90;99.90;;;;;;4987426;28;20038;-73
2022/07/07 08:27:19;;;;;;;5.63;1.95;;;26.10;99.90;;;;;;4989419;28;20076;-74
2022/07/07 08:29:44;;;;;;;2.75;1.77;;;26.40;99.90;;;;;;4982095;28;20389;-73
2022/07/07 08:32:11;;;;;;;2.53;2.00;;;26.50;99.90;;;;;;4990557;28;20080;-73
2022/07/07 08:34:38;;;;;;;3.03;1.80;;;26.80;99.90;;;;;;4986804;28;20065;-73
2022/07/07 08:37:05;;;;;;;3.60;1.90;;;27.00;99.90;;;;;;4985638;28;20038;-73
2022/07/07 08:39:32;;;;;;;8.27;1.80;;;27.00;99.90;;;;;;4985794;28;20125;-74
2022/07/07 08:41:58;;;;;;;1.40;1.30;;;27.10;99.90;;;;;;5003990;28;20381;-75
2022/07/07 08:44:25;;;;;;;4.57;1.77;;;27.20;99.90;;;;;;4985672;28;20026;-74
2022/07/07 08:46:51;;;;;;;3.67;2.72;;;27.30;99.90;;;;;;4977816;28;20096;-74
2022/07/07 08:49:17;;;;;;;23.27;18.02;;;27.50;99.90;;;;;;4986982;28;20220;-75
2022/07/07 08:51:44;;;;;;;2.20;1.65;;;27.70;99.90;;;;;;4988385;28;20026;-75
2022/07/07 08:54:12;;;;;;;2.90;1.80;;;27.80;99.90;;;;;;4988632;28;20513;-75
2022/07/07 08:56:39;;;;;;;3.47;1.90;;;28.00;99.90;;;;;;4988566;28;20049;-73
2022/07/07 08:59:07;;;;;;;2.65;1.73;;;28.10;99.90;;;;;;4986926;28;20070;-74
2022/07/07 09:01:33;;;;;;;1.88;1.70;;;28.10;99.90;;;;;;4991117;28;20046;-74
2022/07/07 09:03:59;;;;;;;2.70;2.00;;;28.10;99.90;;;;;;4988251;28;20041;-75
2022/07/07 09:06:25;;;;;;;6.85;1.80;;;28.10;99.90;;;;;;4988297;28;20038;-73
2022/07/07 09:08:52;;;;;;;4.03;1.88;;;28.10;99.90;;;;;;4988119;28;20212;-73
2022/07/07 09:11:28;;;;;;;4.93;1.80;;;28.20;99.70;;;;;;4989524;28;20085;-73
2022/07/07 09:14:08;;;;;;;1.58;1.35;;;28.50;99.40;;;;;;4986895;28;20030;-73
2022/07/07 09:16:36;;;;;;;1.85;1.63;;;28.80;99.00;;;;;;4984690;28;20038;-74
2022/07/07 09:19:02;;;;;;;4.65;3.63;;;29.20;98.20;;;;;;4988278;28;20027;-74
2022/07/07 09:21:32;;;;;;;4.57;3.95;;;29.50;98.00;;;;;;4988129;28;20033;-74
2022/07/07 09:24:00;;;;;;;4.47;1.60;;;29.80;96.30;;;;;;4988359;28;20033;-74
2022/07/07 09:26:41;;;;;;;4.90;1.60;;;30.00;94.90;;;;;;4983924;28;20539;-73
2022/07/07 09:29:09;;;;;;;2.00;1.58;;;30.10;95.00;;;;;;4987436;28;20521;-74
2022/07/07 09:31:53;;;;;;;2.05;1.48;;;30.20;94.90;;;;;;4990840;28;20076;-74
2022/07/07 09:34:20;;;;;;;2.60;1.40;;;30.20;94.40;;;;;;4975296;28;20088;-74
2022/07/07 09:39:51;;;;;;;2.45;1.58;;;30.10;93.20;;;;;;4977453;28;20409;-74
2022/07/07 09:42:43;;;;;;;3.15;1.30;;;30.20;92.30;;;;;;4990169;28;20038;-75
2022/07/07 09:45:12;;;;;;;1.75;1.50;;;30.30;92.10;;;;;;4987055;28;20672;-73
2022/07/07 09:47:38;;;;;;;1.77;1.23;;;30.50;91.30;;;;;;4983909;28;20445;-73
2022/07/07 09:50:10;;;;;;;5.03;1.80;;;30.80;91.00;;;;;;4987560;28;20072;-72
2022/07/07 09:52:37;;;;;;;;;;;30.90;89.80;;;;;;4985409;28;20022;-73
2022/07/07 09:55:06;;;;;;;2.88;1.90;;;31.00;91.30;;;;;;4985880;28;20433;-72
2022/07/07 09:57:32;;;;;;;4.47;1.42;;;31.20;90.40;;;;;;4989604;28;20497;-73
2022/07/07 09:59:57;;;;;;;3.05;1.48;;;31.40;89.70;;;;;;4993447;28;20036;-73
2022/07/07 10:02:31;;;;;;;4.00;1.50;;;31.40;89.80;;;;;;4997171;28;20096;-73
2022/07/07 10:04:59;;;;;;;1.40;1.30;;;31.40;86.80;;;;;;4994859;28;20041;-73
2022/07/07 10:07:28;;;;;;;1.52;1.35;;;31.20;88.40;;;;;;4995512;28;20027;-73
2022/07/07 10:09:56;;;;;;;4.40;1.40;;;31.10;86.90;;;;;;4994732;28;20434;-73
2022/07/07 10:12:27;;;;;;;1.83;1.60;;;31.20;86.60;;;;;;4996056;28;20565;-73
2022/07/07 10:15:02;;;;;;;2.65;1.38;;;31.10;84.60;;;;;;4994865;28;20117;-75
2022/07/07 10:17:28;;;;;;;1.80;1.30;;;31.00;83.90;;;;;;4993021;28;20081;-71
2022/07/07 10:19:55;;;;;;;3.20;1.60;;;31.00;84.90;;;;;;4994619;28;20449;-72
2022/07/07 10:22:26;;;;;;;1.55;1.45;;;30.50;85.30;;;;;;4993282;28;20033;-72
2022/07/07 10:24:56;;;;;;;2.88;1.60;;;30.20;86.10;;;;;;4993347;28;20101;-72
2022/07/07 10:27:24;;;;;;;1.73;1.50;;;29.80;87.10;;;;;;4993058;28;20038;-72
2022/07/07 10:29:52;;;;;;;3.78;1.40;;;29.80;90.20;;;;;;4994421;28;20085;-72
2022/07/07 10:32:41;;;;;;;2.45;1.38;;;30.00;89.40;;;;;;4997906;28;20122;-72
2022/07/07 10:35:11;;;;;;;2.20;1.40;;;30.10;87.30;;;;;;4995459;28;20933;-72
2022/07/07 10:37:44;;;;;;;1.45;1.35;;;30.00;89.30;;;;;;4991672;28;20053;-73
2022/07/07 10:40:22;;;;;;;2.72;1.33;;;29.70;87.90;;;;;;4992849;28;20025;-73
2022/07/07 10:43:06;;;;;;;3.47;1.38;;;29.60;87.40;;;;;;4992896;28;20428;-73
2022/07/07 10:45:32;;;;;;;8.57;1.70;;;29.50;88.30;;;;;;4994042;28;20371;-75
2022/07/07 10:47:58;;;;;;;1.50;1.10;;;29.50;89.90;;;;;;4994755;28;20018;-74
2022/07/07 10:50:32;;;;;;;1.52;1.15;;;29.50;88.20;;;;;;4994044;28;20489;-74
2022/07/07 10:52:59;;;;;;;12.88;1.50;;;29.40;86.70;;;;;;4993445;28;20036;-72
2022/07/07 10:55:55;;;;;;;1.67;1.35;;;29.40;88.20;;;;;;4992687;28;20523;-73
2022/07/07 10:58:53;;;;;;;2.03;1.17;;;29.50;87.00;;;;;;4994439;28;20037;-73
2022/07/07 11:01:19;;;;;;;9.52;1.20;;;29.50;87.20;;;;;;4995970;28;20523;-74
2022/07/07 11:03:45;;;;;;;1.98;1.60;;;29.50;85.70;;;;;;4994092;28;20026;-74
2022/07/07 11:06:10;;;;;;;4.35;1.45;;;29.50;87.70;;;;;;4994083;28;20393;-73
2022/07/07 11:08:37;;;;;;;1.30;1.20;;;29.40;87.40;;;;;;4993652;28;20018;-74
2022/07/07 11:11:07;;;;;;;3.60;1.50;;;29.20;86.80;;;;;;4995962;28;20073;-75
2022/07/07 11:13:37;;;;;;;3.38;1.50;;;29.30;89.00;;;;;;4994011;28;20504;-76
2022/07/07 11:16:19;;;;;;;3.10;1.42;;;29.40;90.10;;;;;;4992939;28;20027;-74
2022/07/07 11:19:04;;;;;;;;;;;29.50;86.70;;;;;;4994195;28;20080;-76
2022/07/07 11:21:44;;;;;;;1.10;1.00;;;29.40;85.90;;;;;;4993804;28;19929;-73
2022/07/07 11:24:21;;;;;;;1.52;1.15;;;29.20;84.30;;;;;;4997348;28;20034;-85
2022/07/07 11:26:59;;;;;;;1.20;1.08;;;29.40;86.70;;;;;;4993767;28;20092;-79
2022/07/07 11:29:25;;;;;;;3.40;1.20;;;29.80;85.60;;;;;;4985151;28;20034;-84
2022/07/07 11:32:03;;;;;;;3.55;1.38;;;29.80;86.20;;;;;;4996396;28;20088;-71
2022/07/07 11:34:43;;;;;;;2.17;1.20;;;29.80;86.10;;;;;;4993775;28;20164;-72
2022/07/07 11:37:18;;;;;;;1.55;1.00;;;29.80;84.20;;;;;;4993336;28;20545;-73
2022/07/07 11:39:44;;;;;;;1.08;0.90;;;29.70;82.50;;;;;;4993122;28;20042;-74
2022/07/07 11:42:10;;;;;;;3.10;1.20;;;29.60;83.80;;;;;;4996315;28;20027;-72
2022/07/07 11:44:36;;;;;;;6.28;1.77;;;29.50;87.00;;;;;;4992255;28;20042;-74
2022/07/07 11:47:01;;;;;;;5.75;1.77;;;29.60;90.60;;;;;;4993342;28;20485;-73
2022/07/07 11:49:27;;;;;;;2.20;1.40;;;29.70;92.70;;;;;;4993239;28;20022;-73
2022/07/07 11:51:53;;;;;;;2.10;1.48;;;29.70;92.30;;;;;;4993205;28;20028;-73
2022/07/07 11:54:19;;;;;;;2.63;1.40;;;29.90;92.70;;;;;;4992117;28;20038;-72
2022/07/07 11:56:44;;;;;;;1.30;1.23;;;29.90;92.50;;;;;;4993248;28;20032;-73
2022/07/07 11:59:11;;;;;;;3.40;1.58;;;30.00;90.80;;;;;;4991237;28;20037;-74
2022/07/07 12:01:40;;;;;;;4.10;1.90;;;30.00;92.30;;;;;;4992569;28;20128;-72
2022/07/07 12:04:20;;;;;;;2.40;1.70;;;29.90;92.80;;;;;;4992276;28;20015;-72
2022/07/07 12:06:46;;;;;;;5.25;1.48;;;29.90;93.20;;;;;;4991977;28;20112;-72
2022/07/07 12:09:12;;;;;;;1.20;1.10;;;30.00;93.20;;;;;;4991721;28;20581;-72
2022/07/07 12:11:39;;;;;;;2.10;1.67;;;30.20;91.10;;;;;;4995665;28;20117;-73
2022/07/07 12:14:07;;;;;;;2.75;1.30;;;30.50;92.20;;;;;;4992641;28;20030;-73
2022/07/07 12:16:43;;;;;;;1.67;1.50;;;31.20;91.80;;;;;;4992846;28;20030;-73
2022/07/07 12:19:09;;;;;;;1.55;1.45;;;32.10;89.10;;;;;;4991908;28;20116;-77
2022/07/07 12:21:45;;;;;;;1.92;1.77;;;32.70;87.70;;;;;;4992785;28;20493;-74
2022/07/07 12:24:22;;;;;;;8.55;1.52;;;33.70;90.20;;;;;;4992715;28;20019;-73
2022/07/07 12:26:49;;;;;;;3.10;1.20;;;33.80;90.10;;;;;;4992630;28;20393;-75
2022/07/07 12:29:22;;;;;;;1.52;1.42;;;32.90;86.90;;;;;;4991242;28;20495;-74
2022/07/07 12:31:50;;;;;;;4.10;1.60;;;33.40;88.00;;;;;;4995043;28;20026;-74
2022/07/07 12:34:18;;;;;;;2.20;1.30;;;34.30;86.10;;;;;;4992589;28;20026;-75
2022/07/07 12:36:45;;;;;;;1.48;1.38;;;34.20;79.80;;;;;;4992335;28;20023;-76
2022/07/07 12:39:11;;;;;;;3.63;1.40;;;34.20;82.50;;;;;;4991175;28;20022;-74
2022/07/07 12:41:38;;;;;;;2.85;1.27;;;34.20;86.10;;;;;;4995140;28;20355;-75
2022/07/07 12:44:29;;;;;;;4.35;1.35;;;34.00;82.50;;;;;;4992152;28;20113;-74
2022/07/07 12:46:56;;;;;;;3.90;1.73;;;34.00;83.20;;;;;;4992109;28;20113;-74
2022/07/07 12:49:22;;;;;;;1.52;1.40;;;34.70;83.10;;;;;;4990907;28;20037;-75
2022/07/07 12:51:51;;;;;;;2.15;1.35;;;35.50;80.70;;;;;;4990843;28;20023;-74